createdAt,value
2022-08-25T00:04:59.257Z,31
2022-08-25T00:09:59.537Z,31
2022-08-25T00:14:59.688Z,31
2022-08-25T00:19:59.236Z,31
2022-08-25T00:24:59.339Z,32
2022-08-25T00:29:59.301Z,32
2022-08-25T00:34:59.476Z,32
2022-08-25T00:39:59.369Z,33
2022-08-25T00:45:00.468Z,33
2022-08-25T00:49:59.264Z,33
2022-08-25T00:55:03.035Z,33
2022-08-25T00:59:59.286Z,32
2022-08-25T01:04:59.386Z,33
2022-08-25T01:09:59.463Z,33
2022-08-25T01:14:59.178Z,33
2022-08-25T01:19:59.453Z,33
2022-08-25T01:24:59.602Z,33
2022-08-25T01:29:59.536Z,34
2022-08-25T01:34:59.430Z,34
2022-08-25T01:39:59.952Z,34
2022-08-25T01:44:59.460Z,33
2022-08-25T01:49:59.352Z,34
2022-08-25T01:54:59.322Z,34
2022-08-25T01:59:59.625Z,34
2022-08-25T02:04:59.291Z,33
2022-08-25T02:09:59.370Z,33
2022-08-25T02:14:59.133Z,33
2022-08-25T02:19:59.300Z,33
2022-08-25T02:24:59.699Z,33
2022-08-25T02:29:59.090Z,32
2022-08-25T02:34:59.344Z,31
2022-08-25T02:39:59.279Z,31
2022-08-25T02:44:59.390Z,31
2022-08-25T02:49:59.164Z,30
2022-08-25T02:54:59.381Z,29
2022-08-25T02:59:59.404Z,29
2022-08-25T03:04:59.437Z,28
2022-08-25T03:10:02.961Z,28
2022-08-25T03:14:59.416Z,28
2022-08-25T03:19:59.265Z,27
2022-08-25T03:24:59.744Z,27
2022-08-25T03:29:59.201Z,26
2022-08-25T03:34:59.154Z,26
2022-08-25T03:39:59.503Z,26
2022-08-25T03:44:59.154Z,25
2022-08-25T03:49:59.284Z,25
2022-08-25T03:54:59.243Z,25
2022-08-25T03:59:59.210Z,25
2022-08-25T04:04:59.342Z,24
2022-08-25T04:09:59.145Z,24
2022-08-25T04:14:59.141Z,24
2022-08-25T04:20:00.407Z,23
2022-08-25T04:24:59.253Z,23
2022-08-25T04:29:59.241Z,23
2022-08-25T04:34:59.078Z,23
2022-08-25T04:39:59.481Z,23
2022-08-25T04:44:59.175Z,23
2022-08-25T04:49:59.261Z,23
2022-08-25T04:54:59.751Z,23
2022-08-25T04:59:59.333Z,23
2022-08-25T05:04:59.159Z,23
2022-08-25T05:09:59.116Z,23
2022-08-25T05:14:59.387Z,22
2022-08-25T05:19:59.247Z,22
2022-08-25T05:24:59.373Z,22
2022-08-25T05:29:59.381Z,21
2022-08-25T05:34:59.324Z,21
2022-08-25T05:39:59.256Z,20
2022-08-25T05:44:59.512Z,20
2022-08-25T05:49:59.115Z,21
2022-08-25T05:54:59.573Z,20
2022-08-25T05:59:59.295Z,21
2022-08-25T06:04:59.520Z,21
2022-08-25T06:09:59.383Z,21
2022-08-25T06:14:59.415Z,21
2022-08-25T06:19:59.256Z,20
2022-08-25T06:24:59.119Z,20
2022-08-25T06:29:59.249Z,20
2022-08-25T06:34:59.422Z,21
2022-08-25T06:39:59.716Z,20
2022-08-25T06:44:59.086Z,20
2022-08-25T06:49:59.270Z,21
2022-08-25T06:54:59.260Z,21
2022-08-25T06:59:58.989Z,21
2022-08-25T07:04:59.339Z,21
2022-08-25T07:09:59.102Z,21
2022-08-25T07:15:17.216Z,21
2022-08-25T07:19:59.037Z,21
2022-08-25T07:24:59.397Z,21
2022-08-25T07:29:59.159Z,20
2022-08-25T07:34:59.049Z,20
2022-08-25T07:39:59.071Z,20
2022-08-25T07:44:59.054Z,20
2022-08-25T07:49:58.899Z,20
2022-08-25T07:54:59.036Z,19
2022-08-25T07:59:59.270Z,19
2022-08-25T08:04:59.520Z,19
2022-08-25T08:10:25.635Z,19
2022-08-25T08:14:59.299Z,18
2022-08-25T08:19:59.243Z,18
2022-08-25T08:24:59.180Z,18
2022-08-25T08:29:59.186Z,18
2022-08-25T08:34:59.420Z,18
2022-08-25T08:39:59.137Z,17
2022-08-25T08:45:01.998Z,17
2022-08-25T08:49:58.956Z,17
2022-08-25T08:54:59.182Z,17
2022-08-25T08:59:59.058Z,17
2022-08-25T09:04:59.113Z,16
2022-08-25T09:09:59.824Z,17
2022-08-25T09:14:59.141Z,17
2022-08-25T09:20:18.368Z,16
2022-08-25T09:25:07.954Z,17
2022-08-25T09:30:00.563Z,16
2022-08-25T09:35:00.586Z,16
2022-08-25T09:39:59.126Z,16
2022-08-25T09:44:59.093Z,16
2022-08-25T09:49:58.963Z,15
2022-08-25T09:54:59.134Z,15
2022-08-25T10:00:16.965Z,15
2022-08-25T10:04:59.091Z,15
2022-08-25T10:09:59.142Z,15
2022-08-25T10:14:59.131Z,15
2022-08-25T10:19:58.909Z,14
2022-08-25T10:24:59.032Z,14
2022-08-25T10:29:58.977Z,14
2022-08-25T10:34:59.250Z,14
2022-08-25T10:40:06.172Z,14
2022-08-25T10:44:58.944Z,14
2022-08-25T10:49:58.854Z,14
2022-08-25T10:55:03.346Z,14
2022-08-25T10:59:59.135Z,13
2022-08-25T11:05:01.781Z,13
2022-08-25T11:09:59.093Z,13
2022-08-25T11:15:00.977Z,13
2022-08-25T11:19:58.815Z,12
2022-08-25T11:24:58.727Z,12
2022-08-25T11:30:03.089Z,12
2022-08-25T11:34:59.439Z,12
2022-08-25T11:39:58.906Z,12
2022-08-25T11:44:58.892Z,12
2022-08-25T11:49:59.980Z,12
2022-08-25T11:54:58.881Z,12
2022-08-25T11:59:58.869Z,12
2022-08-25T12:04:59.346Z,12
2022-08-25T12:10:18.870Z,12
2022-08-25T12:15:13.076Z,12
2022-08-25T12:19:59.229Z,12
2022-08-25T12:24:58.901Z,12
2022-08-25T12:29:58.990Z,12
2022-08-25T12:35:09.376Z,12
2022-08-25T12:39:59.033Z,12
2022-08-25T12:44:58.979Z,12
2022-08-25T12:50:24.548Z,12
2022-08-25T12:55:01.726Z,12
2022-08-25T13:00:05.463Z,12
2022-08-25T13:04:59.109Z,12
2022-08-25T13:09:59.116Z,12
2022-08-25T13:14:59.177Z,12
2022-08-25T13:19:58.941Z,12
2022-08-25T13:29:58.970Z,13
2022-08-25T13:34:58.943Z,12
2022-08-25T13:40:07.306Z,12
2022-08-25T13:44:58.938Z,12
2022-08-25T13:50:14.067Z,12
2022-08-25T13:54:59.919Z,13
2022-08-25T13:59:58.792Z,13
2022-08-25T14:04:59.071Z,13
2022-08-25T14:09:58.777Z,13
2022-08-25T14:14:58.991Z,13
2022-08-25T14:19:58.858Z,13
2022-08-25T14:24:59.018Z,13
2022-08-25T14:29:59.162Z,13
2022-08-25T14:34:58.890Z,13
2022-08-25T14:39:59.257Z,13
2022-08-25T14:44:59.016Z,13
2022-08-25T14:49:58.712Z,13
2022-08-25T14:54:59.074Z,13
2022-08-25T14:59:58.754Z,13
2022-08-25T15:04:58.679Z,13
2022-08-25T15:09:59.023Z,13
2022-08-25T15:14:58.870Z,13
2022-08-25T15:19:58.770Z,13
2022-08-25T15:24:58.658Z,13
2022-08-25T15:29:58.635Z,13
2022-08-25T15:34:58.935Z,14
2022-08-25T15:39:58.717Z,14
2022-08-25T15:44:58.870Z,15
2022-08-25T15:49:58.938Z,15
2022-08-25T15:54:58.926Z,15
2022-08-25T15:59:58.676Z,15
2022-08-25T16:04:58.725Z,16
2022-08-25T16:09:59.482Z,16
2022-08-25T16:14:58.904Z,17
2022-08-25T16:19:59.281Z,18
2022-08-25T16:24:58.918Z,18
2022-08-25T16:29:58.695Z,18
2022-08-25T16:34:58.766Z,18
2022-08-25T16:39:58.936Z,20
2022-08-25T16:44:58.815Z,22
2022-08-25T16:49:58.822Z,23
2022-08-25T16:54:58.605Z,26
2022-08-25T16:59:58.657Z,29
2022-08-25T17:04:58.831Z,32
2022-08-25T17:09:58.548Z,34
2022-08-25T17:14:59.358Z,36
2022-08-25T17:19:58.991Z,37
2022-08-25T17:25:01.010Z,39
2022-08-25T17:29:58.685Z,40
2022-08-25T17:34:58.709Z,40
2022-08-25T17:40:02.660Z,41
2022-08-25T17:44:58.758Z,42
2022-08-25T17:49:59.015Z,43
2022-08-25T17:54:58.952Z,44
2022-08-25T17:59:58.531Z,44
2022-08-25T18:05:00.580Z,46
2022-08-25T18:09:58.738Z,47
2022-08-25T18:14:58.938Z,48
2022-08-25T18:19:58.914Z,48
2022-08-25T18:24:59.256Z,49
2022-08-25T18:29:58.761Z,49
2022-08-25T18:34:59.189Z,50
2022-08-25T18:40:00.429Z,51
2022-08-25T18:45:00.659Z,53
2022-08-25T18:50:04.255Z,53
2022-08-25T18:55:00.509Z,54
2022-08-25T19:00:00.772Z,55
2022-08-25T19:05:04.761Z,56
2022-08-25T19:10:00.523Z,56
2022-08-25T19:15:00.292Z,57
2022-08-25T19:20:00.529Z,58
2022-08-25T19:25:00.542Z,58
2022-08-25T19:30:00.586Z,59
2022-08-25T19:35:00.759Z,59
2022-08-25T19:40:00.452Z,60
2022-08-25T19:45:00.850Z,60
2022-08-25T19:50:00.573Z,59
2022-08-25T19:55:00.661Z,59
2022-08-25T20:00:00.295Z,59
2022-08-25T20:05:00.457Z,59
2022-08-25T20:10:00.421Z,59
2022-08-25T20:15:00.289Z,59
2022-08-25T20:20:00.324Z,59
2022-08-25T20:25:00.563Z,58
2022-08-25T20:30:02.833Z,58
2022-08-25T20:35:00.369Z,57
2022-08-25T20:40:01.245Z,58
2022-08-25T20:45:00.222Z,57
2022-08-25T20:50:05.900Z,57
2022-08-25T20:55:00.470Z,57
2022-08-25T21:00:00.894Z,57
2022-08-25T21:05:00.369Z,56
2022-08-25T21:10:00.566Z,55
2022-08-25T21:15:00.348Z,54
2022-08-25T21:20:00.617Z,51
2022-08-25T21:25:00.355Z,49
2022-08-25T21:30:00.372Z,46
2022-08-25T21:35:00.406Z,43
2022-08-25T21:40:00.516Z,41
2022-08-25T21:45:00.447Z,39
2022-08-25T21:50:00.605Z,36
2022-08-25T21:55:00.392Z,35
2022-08-25T22:00:00.552Z,32
2022-08-25T22:05:00.441Z,30
2022-08-25T22:10:00.300Z,29
2022-08-25T22:15:00.361Z,28
2022-08-25T22:20:00.322Z,26
2022-08-25T22:25:00.424Z,24
2022-08-25T22:30:00.396Z,23
2022-08-25T22:35:00.740Z,22
2022-08-25T22:40:00.492Z,20
2022-08-25T22:45:00.360Z,19
2022-08-25T22:50:00.584Z,19
2022-08-25T22:55:00.128Z,18
2022-08-25T23:00:00.160Z,17
2022-08-25T23:05:01.125Z,16
2022-08-25T23:10:00.332Z,16
2022-08-25T23:15:00.624Z,16
2022-08-25T23:20:01.279Z,16
2022-08-25T23:25:00.319Z,15
2022-08-25T23:30:00.483Z,15
2022-08-25T23:35:00.520Z,15
2022-08-25T23:40:00.424Z,15
2022-08-25T23:45:00.577Z,15
2022-08-25T23:50:00.623Z,14
2022-08-25T23:55:00.494Z,14
